sensor_id;sensor_type;location;lat;lon;timestamp;temperature;humidity
1976;DHT22;988;48.016;7.800;2023-01-23T00:01:07;2.60;99.90
1976;DHT22;988;48.016;7.800;2023-01-23T00:03:33;2.80;99.90
1976;DHT22;988;48.016;7.800;2023-01-23T00:06:00;2.90;99.90
1976;DHT22;988;48.016;7.800;2023-01-23T00:08:27;2.80;99.90
1976;DHT22;988;48.016;7.800;2023-01-23T00:10:53;2.70;99.90
1976;DHT22;988;48.016;7.800;2023-01-23T00:13:19;2.70;99.90
1976;DHT22;988;48.016;7.800;2023-01-23T00:15:46;2.80;99.90
1976;DHT22;988;48.016;7.800;2023-01-23T00:18:12;2.80;99.90
1976;DHT22;988;48.016;7.800;2023-01-23T00:20:38;2.80;99.90
1976;DHT22;988;48.016;7.800;2023-01-23T00:23:10;2.70;99.90
1976;DHT22;988;48.016;7.800;2023-01-23T00:25:36;2.60;99.90
1976;DHT22;988;48.016;7.800;2023-01-23T00:28:02;2.70;99.90
1976;DHT22;988;48.016;7.800;2023-01-23T00:30:28;2.70;99.90
1976;DHT22;988;48.016;7.800;2023-01-23T00:32:54;2.50;99.90
1976;DHT22;988;48.016;7.800;2023-01-23T00:35:20;2.40;99.90
1976;DHT22;988;48.016;7.800;2023-01-23T00:37:46;2.70;99.90
1976;DHT22;988;48.016;7.800;2023-01-23T00:40:12;2.60;99.90
1976;DHT22;988;48.016;7.800;2023-01-23T00:42:40;2.60;99.90
1976;DHT22;988;48.016;7.800;2023-01-23T00:45:06;2.70;99.90
1976;DHT22;988;48.016;7.800;2023-01-23T00:47:32;2.60;99.90
1976;DHT22;988;48.016;7.800;2023-01-23T00:49:57;2.80;99.90
1976;DHT22;988;48.016;7.800;2023-01-23T00:52:24;2.80;99.90
1976;DHT22;988;48.016;7.800;2023-01-23T00:54:50;2.70;99.90
1976;DHT22;988;48.016;7.800;2023-01-23T00:57:16;2.60;99.90
1976;DHT22;988;48.016;7.800;2023-01-23T00:59:42;2.70;99.90
1976;DHT22;988;48.016;7.800;2023-01-23T01:02:07;2.70;99.90
1976;DHT22;988;48.016;7.800;2023-01-23T01:04:33;2.60;99.90
1976;DHT22;988;48.016;7.800;2023-01-23T01:06:59;2.70;99.90
1976;DHT22;988;48.016;7.800;2023-01-23T01:09:24;2.60;99.90
1976;DHT22;988;48.016;7.800;2023-01-23T01:11:50;2.80;99.90
1976;DHT22;988;48.016;7.800;2023-01-23T01:14:19;2.60;99.90
1976;DHT22;988;48.016;7.800;2023-01-23T01:16:45;2.50;99.90
1976;DHT22;988;48.016;7.800;2023-01-23T01:19:13;2.50;99.90
1976;DHT22;988;48.016;7.800;2023-01-23T01:21:39;2.40;99.90
1976;DHT22;988;48.016;7.800;2023-01-23T01:24:05;2.50;99.90
1976;DHT22;988;48.016;7.800;2023-01-23T01:26:31;2.10;99.90
1976;DHT22;988;48.016;7.800;2023-01-23T01:29:00;2.80;99.90
1976;DHT22;988;48.016;7.800;2023-01-23T01:31:26;2.50;99.90
1976;DHT22;988;48.016;7.800;2023-01-23T01:33:52;2.40;99.90
1976;DHT22;988;48.016;7.800;2023-01-23T01:36:19;2.40;99.90
1976;DHT22;988;48.016;7.800;2023-01-23T01:38:45;2.40;99.90
1976;DHT22;988;48.016;7.800;2023-01-23T01:41:11;2.40;99.90
1976;DHT22;988;48.016;7.800;2023-01-23T01:43:38;2.30;99.90
1976;DHT22;988;48.016;7.800;2023-01-23T01:46:20;2.50;99.90
1976;DHT22;988;48.016;7.800;2023-01-23T01:49:19;2.80;99.90
1976;DHT22;988;48.016;7.800;2023-01-23T01:54:41;2.50;99.90
1976;DHT22;988;48.016;7.800;2023-01-23T02:00:14;2.00;99.90
1976;DHT22;988;48.016;7.800;2023-01-23T02:02:57;2.20;99.90
1976;DHT22;988;48.016;7.800;2023-01-23T02:08:32;1.90;99.90
1976;DHT22;988;48.016;7.800;2023-01-23T02:11:05;1.90;99.90
1976;DHT22;988;48.016;7.800;2023-01-23T02:13:34;1.80;99.90
1976;DHT22;988;48.016;7.800;2023-01-23T02:16:19;1.80;99.90
1976;DHT22;988;48.016;7.800;2023-01-23T02:18:48;2.00;99.90
1976;DHT22;988;48.016;7.800;2023-01-23T02:21:16;2.10;99.90
1976;DHT22;988;48.016;7.800;2023-01-23T02:24:25;2.00;99.90
1976;DHT22;988;48.016;7.800;2023-01-23T02:26:53;2.00;99.90
1976;DHT22;988;48.016;7.800;2023-01-23T02:29:19;2.10;99.90
1976;DHT22;988;48.016;7.800;2023-01-23T02:31:45;2.10;99.90
1976;DHT22;988;48.016;7.800;2023-01-23T02:34:12;2.20;99.90
1976;DHT22;988;48.016;7.800;2023-01-23T02:36:40;2.20;99.90
1976;DHT22;988;48.016;7.800;2023-01-23T02:39:14;2.20;99.90
1976;DHT22;988;48.016;7.800;2023-01-23T02:41:45;2.20;99.90
1976;DHT22;988;48.016;7.800;2023-01-23T02:44:29;2.30;99.90
1976;DHT22;988;48.016;7.800;2023-01-23T02:47:15;2.30;99.90
1976;DHT22;988;48.016;7.800;2023-01-23T02:49:44;2.30;99.90
1976;DHT22;988;48.016;7.800;2023-01-23T02:52:10;2.30;99.90
1976;DHT22;988;48.016;7.800;2023-01-23T02:54:35;2.40;99.90
1976;DHT22;988;48.016;7.800;2023-01-23T02:57:04;2.40;99.90
1976;DHT22;988;48.016;7.800;2023-01-23T02:59:29;2.40;99.90
1976;DHT22;988;48.016;7.800;2023-01-23T03:02:14;2.20;99.90
1976;DHT22;988;48.016;7.800;2023-01-23T03:04:40;2.20;99.90
1976;DHT22;988;48.016;7.800;2023-01-23T03:07:06;2.10;99.90
1976;DHT22;988;48.016;7.800;2023-01-23T03:09:31;2.10;99.90
1976;DHT22;988;48.016;7.800;2023-01-23T03:11:57;2.20;99.90
1976;DHT22;988;48.016;7.800;2023-01-23T03:14:24;2.10;99.90
1976;DHT22;988;48.016;7.800;2023-01-23T03:16:50;2.30;99.90
1976;DHT22;988;48.016;7.800;2023-01-23T03:19:23;2.30;99.90
1976;DHT22;988;48.016;7.800;2023-01-23T03:21:54;2.20;99.90
1976;DHT22;988;48.016;7.800;2023-01-23T03:24:20;2.40;99.90
1976;DHT22;988;48.016;7.800;2023-01-23T03:26:47;2.30;99.90
1976;DHT22;988;48.016;7.800;2023-01-23T03:29:22;2.50;99.90
1976;DHT22;988;48.016;7.800;2023-01-23T03:32:07;2.40;99.90
1976;DHT22;988;48.016;7.800;2023-01-23T03:34:43;2.60;99.90
1976;DHT22;988;48.016;7.800;2023-01-23T03:37:10;2.50;99.90
1976;DHT22;988;48.016;7.800;2023-01-23T03:39:36;2.60;99.90
1976;DHT22;988;48.016;7.800;2023-01-23T03:42:26;2.60;99.90
1976;DHT22;988;48.016;7.800;2023-01-23T03:44:52;2.60;99.90
1976;DHT22;988;48.016;7.800;2023-01-23T03:47:17;2.70;99.90
1976;DHT22;988;48.016;7.800;2023-01-23T03:49:45;2.80;99.90
1976;DHT22;988;48.016;7.800;2023-01-23T03:52:10;2.70;99.90
1976;DHT22;988;48.016;7.800;2023-01-23T03:54:36;2.70;99.90
1976;DHT22;988;48.016;7.800;2023-01-23T03:57:01;3.40;99.90
1976;DHT22;988;48.016;7.800;2023-01-23T03:59:27;2.80;99.90
1976;DHT22;988;48.016;7.800;2023-01-23T04:01:59;2.90;99.90
1976;DHT22;988;48.016;7.800;2023-01-23T04:04:25;3.00;99.90
1976;DHT22;988;48.016;7.800;2023-01-23T04:06:51;3.20;99.90
1976;DHT22;988;48.016;7.800;2023-01-23T04:09:17;3.00;99.90
1976;DHT22;988;48.016;7.800;2023-01-23T04:11:42;3.00;99.90
1976;DHT22;988;48.016;7.800;2023-01-23T04:14:11;3.00;99.90
1976;DHT22;988;48.016;7.800;2023-01-23T04:16:36;3.10;99.90
1976;DHT22;988;48.016;7.800;2023-01-23T04:19:02;3.00;99.90
1976;DHT22;988;48.016;7.800;2023-01-23T04:21:27;3.00;99.90
1976;DHT22;988;48.016;7.800;2023-01-23T04:23:53;3.00;99.90
1976;DHT22;988;48.016;7.800;2023-01-23T04:26:18;2.90;99.90
1976;DHT22;988;48.016;7.800;2023-01-23T04:28:47;2.80;99.90
1976;DHT22;988;48.016;7.800;2023-01-23T04:31:12;2.80;99.90
1976;DHT22;988;48.016;7.800;2023-01-23T04:33:38;2.50;99.90
1976;DHT22;988;48.016;7.800;2023-01-23T04:36:05;2.50;99.90
1976;DHT22;988;48.016;7.800;2023-01-23T04:38:31;2.70;99.90
1976;DHT22;988;48.016;7.800;2023-01-23T04:40:57;2.50;99.90
1976;DHT22;988;48.016;7.800;2023-01-23T04:43:26;2.30;99.90
1976;DHT22;988;48.016;7.800;2023-01-23T04:45:52;2.20;99.90
1976;DHT22;988;48.016;7.800;2023-01-23T04:48:22;2.20;99.90
1976;DHT22;988;48.016;7.800;2023-01-23T04:50:48;2.20;99.90
1976;DHT22;988;48.016;7.800;2023-01-23T04:53:14;2.20;99.90
1976;DHT22;988;48.016;7.800;2023-01-23T04:55:40;2.20;99.90
1976;DHT22;988;48.016;7.800;2023-01-23T04:58:05;2.40;99.90
1976;DHT22;988;48.016;7.800;2023-01-23T05:00:31;2.30;99.90
1976;DHT22;988;48.016;7.800;2023-01-23T05:02:57;2.20;99.90
1976;DHT22;988;48.016;7.800;2023-01-23T05:05:23;2.30;99.90
1976;DHT22;988;48.016;7.800;2023-01-23T05:07:52;2.30;99.90
1976;DHT22;988;48.016;7.800;2023-01-23T05:10:30;2.30;99.90
1976;DHT22;988;48.016;7.800;2023-01-23T05:12:56;2.20;99.90
1976;DHT22;988;48.016;7.800;2023-01-23T05:15:21;2.10;99.90
1976;DHT22;988;48.016;7.800;2023-01-23T05:17:48;2.30;99.90
1976;DHT22;988;48.016;7.800;2023-01-23T05:20:13;2.50;99.90
1976;DHT22;988;48.016;7.800;2023-01-23T05:22:40;2.50;99.90
1976;DHT22;988;48.016;7.800;2023-01-23T05:25:21;2.60;99.90
1976;DHT22;988;48.016;7.800;2023-01-23T05:27:48;2.60;99.90
1976;DHT22;988;48.016;7.800;2023-01-23T05:30:20;2.60;99.90
1976;DHT22;988;48.016;7.800;2023-01-23T05:32:48;3.00;99.90
1976;DHT22;988;48.016;7.800;2023-01-23T05:38:36;2.60;99.90
1976;DHT22;988;48.016;7.800;2023-01-23T05:41:02;2.70;99.90
1976;DHT22;988;48.016;7.800;2023-01-23T05:43:30;2.70;99.90
1976;DHT22;988;48.016;7.800;2023-01-23T05:45:58;2.60;99.90
1976;DHT22;988;48.016;7.800;2023-01-23T05:48:28;3.20;99.90
1976;DHT22;988;48.016;7.800;2023-01-23T05:51:02;2.50;99.90
1976;DHT22;988;48.016;7.800;2023-01-23T05:53:28;2.70;99.90
1976;DHT22;988;48.016;7.800;2023-01-23T05:55:53;2.70;99.90
1976;DHT22;988;48.016;7.800;2023-01-23T05:58:19;2.80;99.90
1976;DHT22;988;48.016;7.800;2023-01-23T06:00:44;2.50;99.90
1976;DHT22;988;48.016;7.800;2023-01-23T06:03:10;2.40;99.90
1976;DHT22;988;48.016;7.800;2023-01-23T06:05:36;2.60;99.90
1976;DHT22;988;48.016;7.800;2023-01-23T06:08:05;2.60;99.90
1976;DHT22;988;48.016;7.800;2023-01-23T06:10:30;2.70;99.90
1976;DHT22;988;48.016;7.800;2023-01-23T06:12:56;2.60;99.90
1976;DHT22;988;48.016;7.800;2023-01-23T06:15:28;2.50;99.90
1976;DHT22;988;48.016;7.800;2023-01-23T06:17:54;2.40;99.90
1976;DHT22;988;48.016;7.800;2023-01-23T06:20:19;2.70;99.90
1976;DHT22;988;48.016;7.800;2023-01-23T06:22:45;2.50;99.90
1976;DHT22;988;48.016;7.800;2023-01-23T06:25:10;2.60;99.90
1976;DHT22;988;48.016;7.800;2023-01-23T06:27:36;2.90;99.90
1976;DHT22;988;48.016;7.800;2023-01-23T06:30:08;3.00;99.90
1976;DHT22;988;48.016;7.800;2023-01-23T06:32:37;2.90;99.90
1976;DHT22;988;48.016;7.800;2023-01-23T06:35:03;3.00;99.90
1976;DHT22;988;48.016;7.800;2023-01-23T06:37:29;3.00;99.90
1976;DHT22;988;48.016;7.800;2023-01-23T06:39:57;2.90;99.90
1976;DHT22;988;48.016;7.800;2023-01-23T06:42:23;2.70;99.90
1976;DHT22;988;48.016;7.800;2023-01-23T06:44:48;2.80;99.90
1976;DHT22;988;48.016;7.800;2023-01-23T06:47:17;2.80;99.90
1976;DHT22;988;48.016;7.800;2023-01-23T06:49:47;2.80;99.90
1976;DHT22;988;48.016;7.800;2023-01-23T06:52:13;3.00;99.90
1976;DHT22;988;48.016;7.800;2023-01-23T06:54:41;3.10;99.90
1976;DHT22;988;48.016;7.800;2023-01-23T06:57:07;3.20;99.90
1976;DHT22;988;48.016;7.800;2023-01-23T06:59:35;3.20;99.90
1976;DHT22;988;48.016;7.800;2023-01-23T07:02:01;3.40;99.90
1976;DHT22;988;48.016;7.800;2023-01-23T07:04:27;3.30;99.90
1976;DHT22;988;48.016;7.800;2023-01-23T07:06:55;3.30;99.90
1976;DHT22;988;48.016;7.800;2023-01-23T07:09:30;3.30;99.90
1976;DHT22;988;48.016;7.800;2023-01-23T07:11:56;3.40;99.90
1976;DHT22;988;48.016;7.800;2023-01-23T07:14:24;3.50;99.90
1976;DHT22;988;48.016;7.800;2023-01-23T07:16:54;3.40;99.90
1976;DHT22;988;48.016;7.800;2023-01-23T07:19:20;4.00;99.90
1976;DHT22;988;48.016;7.800;2023-01-23T07:21:47;3.70;99.90
1976;DHT22;988;48.016;7.800;2023-01-23T07:24:16;3.60;99.90
1976;DHT22;988;48.016;7.800;2023-01-23T07:26:41;3.60;99.90
1976;DHT22;988;48.016;7.800;2023-01-23T07:29:07;3.50;99.90
1976;DHT22;988;48.016;7.800;2023-01-23T07:31:35;3.80;99.90
1976;DHT22;988;48.016;7.800;2023-01-23T07:34:01;3.60;99.90
1976;DHT22;988;48.016;7.800;2023-01-23T07:36:28;3.60;99.90
1976;DHT22;988;48.016;7.800;2023-01-23T07:38:54;3.60;99.90
1976;DHT22;988;48.016;7.800;2023-01-23T07:41:20;3.70;99.90
1976;DHT22;988;48.016;7.800;2023-01-23T07:43:46;4.00;99.90
1976;DHT22;988;48.016;7.800;2023-01-23T07:46:12;3.60;99.90
1976;DHT22;988;48.016;7.800;2023-01-23T07:48:46;4.30;99.90
1976;DHT22;988;48.016;7.800;2023-01-23T07:51:12;3.80;99.90
1976;DHT22;988;48.016;7.800;2023-01-23T07:53:39;3.70;99.90
1976;DHT22;988;48.016;7.800;2023-01-23T07:56:14;3.70;99.90
1976;DHT22;988;48.016;7.800;2023-01-23T07:58:40;3.80;99.90
1976;DHT22;988;48.016;7.800;2023-01-23T08:01:09;4.30;99.90
1976;DHT22;988;48.016;7.800;2023-01-23T08:03:35;3.80;99.90
1976;DHT22;988;48.016;7.800;2023-01-23T08:06:01;3.80;99.90
1976;DHT22;988;48.016;7.800;2023-01-23T08:08:27;4.00;99.90
1976;DHT22;988;48.016;7.800;2023-01-23T08:10:52;4.00;99.90
1976;DHT22;988;48.016;7.800;2023-01-23T08:13:21;4.00;99.90
1976;DHT22;988;48.016;7.800;2023-01-23T08:15:46;4.20;99.90
1976;DHT22;988;48.016;7.800;2023-01-23T08:18:12;4.20;99.90
1976;DHT22;988;48.016;7.800;2023-01-23T08:20:38;4.00;99.90
1976;DHT22;988;48.016;7.800;2023-01-23T08:23:03;4.00;99.90
1976;DHT22;988;48.016;7.800;2023-01-23T08:25:33;3.80;99.90
1976;DHT22;988;48.016;7.800;2023-01-23T08:27:58;4.00;99.90
1976;DHT22;988;48.016;7.800;2023-01-23T08:30:27;4.00;99.90
1976;DHT22;988;48.016;7.800;2023-01-23T08:32:52;4.00;99.90
1976;DHT22;988;48.016;7.800;2023-01-23T08:35:21;4.10;99.90
1976;DHT22;988;48.016;7.800;2023-01-23T08:37:46;3.90;99.90
1976;DHT22;988;48.016;7.800;2023-01-23T08:40:12;4.00;99.90
1976;DHT22;988;48.016;7.800;2023-01-23T08:42:47;3.90;99.90
1976;DHT22;988;48.016;7.800;2023-01-23T08:45:13;3.90;99.90
1976;DHT22;988;48.016;7.800;2023-01-23T08:47:38;3.90;99.90
1976;DHT22;988;48.016;7.800;2023-01-23T08:50:08;3.80;99.90
1976;DHT22;988;48.016;7.800;2023-01-23T08:52:43;4.20;99.10
1976;DHT22;988;48.016;7.800;2023-01-23T08:55:11;4.30;99.90
1976;DHT22;988;48.016;7.800;2023-01-23T08:57:37;4.30;99.90
1976;DHT22;988;48.016;7.800;2023-01-23T09:00:09;4.10;99.90
1976;DHT22;988;48.016;7.800;2023-01-23T09:02:35;4.20;99.20
1976;DHT22;988;48.016;7.800;2023-01-23T09:05:01;4.30;99.90
1976;DHT22;988;48.016;7.800;2023-01-23T09:07:26;4.40;99.90
1976;DHT22;988;48.016;7.800;2023-01-23T09:09:52;4.50;99.90
1976;DHT22;988;48.016;7.800;2023-01-23T09:12:19;4.70;99.30
1976;DHT22;988;48.016;7.800;2023-01-23T09:14:44;5.00;99.10
1976;DHT22;988;48.016;7.800;2023-01-23T09:17:10;4.90;99.10
1976;DHT22;988;48.016;7.800;2023-01-23T09:19:36;4.70;99.10
1976;DHT22;988;48.016;7.800;2023-01-23T09:22:10;4.80;99.40
1976;DHT22;988;48.016;7.800;2023-01-23T09:24:36;5.00;99.50
1976;DHT22;988;48.016;7.800;2023-01-23T09:27:02;4.90;99.00
1976;DHT22;988;48.016;7.800;2023-01-23T09:29:27;5.20;98.50
1976;DHT22;988;48.016;7.800;2023-01-23T09:31:53;5.30;98.30
1976;DHT22;988;48.016;7.800;2023-01-23T09:34:22;5.40;98.00
1976;DHT22;988;48.016;7.800;2023-01-23T09:36:47;5.50;97.40
1976;DHT22;988;48.016;7.800;2023-01-23T09:39:13;5.70;97.30
1976;DHT22;988;48.016;7.800;2023-01-23T09:41:43;5.60;96.80
1976;DHT22;988;48.016;7.800;2023-01-23T09:44:22;6.10;97.00
1976;DHT22;988;48.016;7.800;2023-01-23T09:46:57;5.80;94.30
1976;DHT22;988;48.016;7.800;2023-01-23T09:52:18;5.90;94.10
1976;DHT22;988;48.016;7.800;2023-01-23T09:54:46;5.80;94.20
1976;DHT22;988;48.016;7.800;2023-01-23T09:57:25;5.60;95.90
1976;DHT22;988;48.016;7.800;2023-01-23T10:00:03;6.20;96.00
1976;DHT22;988;48.016;7.800;2023-01-23T10:02:31;5.50;95.30
1976;DHT22;988;48.016;7.800;2023-01-23T10:04:58;5.40;95.70
1976;DHT22;988;48.016;7.800;2023-01-23T10:16:29;5.60;93.70
1976;DHT22;988;48.016;7.800;2023-01-23T10:19:47;5.90;93.50
1976;DHT22;988;48.016;7.800;2023-01-23T10:25:01;6.00;95.10
1976;DHT22;988;48.016;7.800;2023-01-23T10:27:45;6.10;95.10
1976;DHT22;988;48.016;7.800;2023-01-23T10:33:00;6.00;93.00
1976;DHT22;988;48.016;7.800;2023-01-23T10:35:38;6.10;93.00
1976;DHT22;988;48.016;7.800;2023-01-23T10:40:51;6.00;93.10
1976;DHT22;988;48.016;7.800;2023-01-23T10:43:49;6.30;93.80
1976;DHT22;988;48.016;7.800;2023-01-23T10:46:34;6.40;94.90
1976;DHT22;988;48.016;7.800;2023-01-23T10:49:09;6.40;93.00
1976;DHT22;988;48.016;7.800;2023-01-23T10:51:50;6.40;95.00
1976;DHT22;988;48.016;7.800;2023-01-23T10:54:20;6.60;92.60
1976;DHT22;988;48.016;7.800;2023-01-23T10:56:54;6.70;94.30
1976;DHT22;988;48.016;7.800;2023-01-23T11:04:39;6.80;92.80
1976;DHT22;988;48.016;7.800;2023-01-23T11:09:40;6.70;94.60
1976;DHT22;988;48.016;7.800;2023-01-23T11:12:20;6.60;94.50
1976;DHT22;988;48.016;7.800;2023-01-23T11:14:46;6.60;94.50
1976;DHT22;988;48.016;7.800;2023-01-23T11:19:41;7.90;94.80
1976;DHT22;988;48.016;7.800;2023-01-23T11:24:49;7.00;94.30
1976;DHT22;988;48.016;7.800;2023-01-23T11:27:27;7.00;94.10
1976;DHT22;988;48.016;7.800;2023-01-23T11:32:24;7.20;93.30
1976;DHT22;988;48.016;7.800;2023-01-23T11:37:52;7.40;92.90
1976;DHT22;988;48.016;7.800;2023-01-23T11:40:26;7.60;93.00
1976;DHT22;988;48.016;7.800;2023-01-23T11:42:51;7.70;93.00
1976;DHT22;988;48.016;7.800;2023-01-23T11:48:49;7.70;90.70
1976;DHT22;988;48.016;7.800;2023-01-23T11:54:07;7.40;92.40
1976;DHT22;988;48.016;7.800;2023-01-23T12:17:04;8.20;90.00
1976;DHT22;988;48.016;7.800;2023-01-23T12:19:52;8.20;90.20
1976;DHT22;988;48.016;7.800;2023-01-23T12:23:01;7.80;90.20
1976;DHT22;988;48.016;7.800;2023-01-23T12:25:23;7.60;92.60
1976;DHT22;988;48.016;7.800;2023-01-23T12:39:58;6.90;91.50
1976;DHT22;988;48.016;7.800;2023-01-23T12:42:53;6.90;92.00
1976;DHT22;988;48.016;7.800;2023-01-23T12:45:25;7.50;94.10
1976;DHT22;988;48.016;7.800;2023-01-23T12:48:12;7.00;93.80
1976;DHT22;988;48.016;7.800;2023-01-23T12:50:56;6.80;92.00
1976;DHT22;988;48.016;7.800;2023-01-23T12:53:31;6.70;94.30
1976;DHT22;988;48.016;7.800;2023-01-23T12:56:04;6.70;94.30
1976;DHT22;988;48.016;7.800;2023-01-23T12:58:39;6.60;94.30
1976;DHT22;988;48.016;7.800;2023-01-23T13:13:07;6.30;93.50
1976;DHT22;988;48.016;7.800;2023-01-23T13:15:36;6.40;95.50
1976;DHT22;988;48.016;7.800;2023-01-23T13:18:13;6.30;95.50
1976;DHT22;988;48.016;7.800;2023-01-23T13:20:56;6.30;95.80
1976;DHT22;988;48.016;7.800;2023-01-23T13:23:44;6.60;96.50
1976;DHT22;988;48.016;7.800;2023-01-23T13:28:49;6.00;96.50
1976;DHT22;988;48.016;7.800;2023-01-23T13:31:41;6.00;96.00
1976;DHT22;988;48.016;7.800;2023-01-23T13:36:46;6.20;96.40
1976;DHT22;988;48.016;7.800;2023-01-23T13:39:22;6.30;96.40
1976;DHT22;988;48.016;7.800;2023-01-23T13:44:32;6.20;94.40
1976;DHT22;988;48.016;7.800;2023-01-23T13:50:19;6.40;94.90
1976;DHT22;988;48.016;7.800;2023-01-23T13:52:52;6.30;96.20
1976;DHT22;988;48.016;7.800;2023-01-23T13:55:41;6.20;96.90
1976;DHT22;988;48.016;7.800;2023-01-23T13:58:30;6.10;97.20
1976;DHT22;988;48.016;7.800;2023-01-23T14:01:15;6.10;97.60
1976;DHT22;988;48.016;7.800;2023-01-23T14:04:33;5.80;95.70
1976;DHT22;988;48.016;7.800;2023-01-23T14:07:32;7.00;97.30
1976;DHT22;988;48.016;7.800;2023-01-23T14:10:30;6.00;97.20
1976;DHT22;988;48.016;7.800;2023-01-23T14:13:19;5.70;97.50
1976;DHT22;988;48.016;7.800;2023-01-23T14:15:54;5.70;95.90
1976;DHT22;988;48.016;7.800;2023-01-23T14:26:47;5.70;98.90
1976;DHT22;988;48.016;7.800;2023-01-23T14:29:23;5.60;99.10
1976;DHT22;988;48.016;7.800;2023-01-23T14:31:52;5.40;99.40
1976;DHT22;988;48.016;7.800;2023-01-23T14:34:22;5.70;99.80
1976;DHT22;988;48.016;7.800;2023-01-23T14:37:01;5.50;99.80
1976;DHT22;988;48.016;7.800;2023-01-23T14:39:29;5.50;98.00
1976;DHT22;988;48.016;7.800;2023-01-23T14:41:59;5.80;99.80
1976;DHT22;988;48.016;7.800;2023-01-23T14:44:44;5.80;99.30
1976;DHT22;988;48.016;7.800;2023-01-23T14:47:46;5.70;98.10
1976;DHT22;988;48.016;7.800;2023-01-23T14:50:21;6.00;99.90
1976;DHT22;988;48.016;7.800;2023-01-23T14:52:59;5.80;99.70
1976;DHT22;988;48.016;7.800;2023-01-23T14:55:29;6.00;99.90
1976;DHT22;988;48.016;7.800;2023-01-23T14:57:57;5.70;99.80
1976;DHT22;988;48.016;7.800;2023-01-23T15:00:30;5.40;99.90
1976;DHT22;988;48.016;7.800;2023-01-23T15:02:56;5.50;99.90
1976;DHT22;988;48.016;7.800;2023-01-23T15:05:37;5.60;99.90
1976;DHT22;988;48.016;7.800;2023-01-23T15:08:30;5.40;99.90
1976;DHT22;988;48.016;7.800;2023-01-23T15:10:58;5.30;99.90
1976;DHT22;988;48.016;7.800;2023-01-23T15:13:42;5.20;99.90
1976;DHT22;988;48.016;7.800;2023-01-23T15:16:20;5.30;99.90
1976;DHT22;988;48.016;7.800;2023-01-23T15:18:56;5.20;99.90
1976;DHT22;988;48.016;7.800;2023-01-23T15:21:41;5.20;99.90
1976;DHT22;988;48.016;7.800;2023-01-23T15:24:25;5.30;99.90
1976;DHT22;988;48.016;7.800;2023-01-23T15:26:57;5.20;99.30
1976;DHT22;988;48.016;7.800;2023-01-23T15:29:23;5.20;99.90
1976;DHT22;988;48.016;7.800;2023-01-23T15:31:50;5.40;99.90
1976;DHT22;988;48.016;7.800;2023-01-23T15:34:31;5.30;99.90
1976;DHT22;988;48.016;7.800;2023-01-23T15:39:47;5.20;99.60
1976;DHT22;988;48.016;7.800;2023-01-23T15:44:40;4.90;99.90
1976;DHT22;988;48.016;7.800;2023-01-23T15:47:06;4.80;99.90
1976;DHT22;988;48.016;7.800;2023-01-23T15:49:34;4.70;99.90
1976;DHT22;988;48.016;7.800;2023-01-23T15:52:24;4.80;99.90
1976;DHT22;988;48.016;7.800;2023-01-23T15:54:54;4.90;99.90
1976;DHT22;988;48.016;7.800;2023-01-23T15:57:20;5.00;99.90
1976;DHT22;988;48.016;7.800;2023-01-23T15:59:48;5.00;99.90
1976;DHT22;988;48.016;7.800;2023-01-23T16:02:22;5.00;99.90
1976;DHT22;988;48.016;7.800;2023-01-23T16:04:47;5.00;99.90
1976;DHT22;988;48.016;7.800;2023-01-23T16:07:24;5.00;99.90
1976;DHT22;988;48.016;7.800;2023-01-23T16:09:54;5.00;99.90
1976;DHT22;988;48.016;7.800;2023-01-23T16:12:26;5.20;99.90
1976;DHT22;988;48.016;7.800;2023-01-23T16:14:54;4.80;99.90
1976;DHT22;988;48.016;7.800;2023-01-23T16:17:26;4.70;99.90
1976;DHT22;988;48.016;7.800;2023-01-23T16:19:52;4.80;99.90
1976;DHT22;988;48.016;7.800;2023-01-23T16:22:26;4.60;99.90
1976;DHT22;988;48.016;7.800;2023-01-23T16:24:53;4.60;99.90
1976;DHT22;988;48.016;7.800;2023-01-23T16:27:20;5.10;99.90
1976;DHT22;988;48.016;7.800;2023-01-23T16:29:52;4.50;99.90
1976;DHT22;988;48.016;7.800;2023-01-23T16:32:17;4.40;99.90
1976;DHT22;988;48.016;7.800;2023-01-23T16:34:52;4.40;99.90
1976;DHT22;988;48.016;7.800;2023-01-23T16:37:21;4.40;99.90
1976;DHT22;988;48.016;7.800;2023-01-23T16:39:51;4.50;99.90
1976;DHT22;988;48.016;7.800;2023-01-23T16:42:22;4.70;99.90
1976;DHT22;988;48.016;7.800;2023-01-23T16:44:49;4.80;99.90
1976;DHT22;988;48.016;7.800;2023-01-23T16:47:15;4.60;99.90
1976;DHT22;988;48.016;7.800;2023-01-23T16:49:41;4.40;99.90
1976;DHT22;988;48.016;7.800;2023-01-23T16:52:09;4.40;99.90
1976;DHT22;988;48.016;7.800;2023-01-23T16:54:46;4.30;99.90
1976;DHT22;988;48.016;7.800;2023-01-23T16:57:17;4.40;99.90
1976;DHT22;988;48.016;7.800;2023-01-23T16:59:50;4.60;99.90
1976;DHT22;988;48.016;7.800;2023-01-23T17:02:19;4.40;99.90
1976;DHT22;988;48.016;7.800;2023-01-23T17:04:45;4.50;99.90
1976;DHT22;988;48.016;7.800;2023-01-23T17:07:16;4.40;99.90
1976;DHT22;988;48.016;7.800;2023-01-23T17:09:43;4.30;99.90
1976;DHT22;988;48.016;7.800;2023-01-23T17:12:21;4.60;99.90
1976;DHT22;988;48.016;7.800;2023-01-23T17:14:49;4.20;99.90
1976;DHT22;988;48.016;7.800;2023-01-23T17:17:30;4.20;99.90
1976;DHT22;988;48.016;7.800;2023-01-23T17:19:56;4.30;99.90
1976;DHT22;988;48.016;7.800;2023-01-23T17:22:26;4.30;99.90
1976;DHT22;988;48.016;7.800;2023-01-23T17:24:52;4.40;99.90
1976;DHT22;988;48.016;7.800;2023-01-23T17:27:24;4.10;99.90
1976;DHT22;988;48.016;7.800;2023-01-23T17:29:49;4.00;99.90
1976;DHT22;988;48.016;7.800;2023-01-23T17:32:38;4.20;99.90
1976;DHT22;988;48.016;7.800;2023-01-23T17:35:07;4.30;99.90
1976;DHT22;988;48.016;7.800;2023-01-23T17:37:39;4.40;99.90
1976;DHT22;988;48.016;7.800;2023-01-23T17:40:34;4.40;99.90
1976;DHT22;988;48.016;7.800;2023-01-23T17:43:00;4.30;99.90
1976;DHT22;988;48.016;7.800;2023-01-23T17:45:28;4.30;99.90
1976;DHT22;988;48.016;7.800;2023-01-23T17:47:54;5.00;99.90
1976;DHT22;988;48.016;7.800;2023-01-23T17:50:24;4.20;99.90
1976;DHT22;988;48.016;7.800;2023-01-23T17:52:51;4.30;99.90
1976;DHT22;988;48.016;7.800;2023-01-23T17:55:25;4.40;99.90
1976;DHT22;988;48.016;7.800;2023-01-23T17:57:56;4.30;99.90
1976;DHT22;988;48.016;7.800;2023-01-23T18:00:24;4.50;99.90
1976;DHT22;988;48.016;7.800;2023-01-23T18:02:59;4.50;99.90
1976;DHT22;988;48.016;7.800;2023-01-23T18:05:25;5.00;99.90
1976;DHT22;988;48.016;7.800;2023-01-23T18:07:54;4.50;99.90
1976;DHT22;988;48.016;7.800;2023-01-23T18:10:21;4.50;99.90
1976;DHT22;988;48.016;7.800;2023-01-23T18:12:49;4.60;99.90
1976;DHT22;988;48.016;7.800;2023-01-23T18:15:19;4.50;99.90
1976;DHT22;988;48.016;7.800;2023-01-23T18:18:11;4.60;99.90
1976;DHT22;988;48.016;7.800;2023-01-23T18:20:43;4.50;99.90
1976;DHT22;988;48.016;7.800;2023-01-23T18:23:13;4.30;99.90
1976;DHT22;988;48.016;7.800;2023-01-23T18:25:44;4.30;99.90
1976;DHT22;988;48.016;7.800;2023-01-23T18:28:40;4.30;99.90
1976;DHT22;988;48.016;7.800;2023-01-23T18:31:30;4.40;99.90
1976;DHT22;988;48.016;7.800;2023-01-23T18:37:21;4.50;99.90
1976;DHT22;988;48.016;7.800;2023-01-23T18:42:35;4.50;99.90
1976;DHT22;988;48.016;7.800;2023-01-23T18:45:14;4.50;99.90
1976;DHT22;988;48.016;7.800;2023-01-23T18:47:46;4.40;99.90
1976;DHT22;988;48.016;7.800;2023-01-23T18:50:17;4.40;99.90
1976;DHT22;988;48.016;7.800;2023-01-23T19:04:13;4.20;99.90
1976;DHT22;988;48.016;7.800;2023-01-23T19:06:39;4.30;99.90
1976;DHT22;988;48.016;7.800;2023-01-23T19:09:16;4.30;99.90
1976;DHT22;988;48.016;7.800;2023-01-23T19:15:20;4.40;99.90
1976;DHT22;988;48.016;7.800;2023-01-23T19:20:38;4.40;99.90
1976;DHT22;988;48.016;7.800;2023-01-23T19:25:56;4.30;99.90
1976;DHT22;988;48.016;7.800;2023-01-23T19:28:22;4.20;99.90
1976;DHT22;988;48.016;7.800;2023-01-23T19:30:53;4.10;99.90